sensor_id;sensor_type;location;lat;lon;timestamp;temperature;humidity
15257;DHT22;7731;50.720;6.912;2023-02-08T00:02:15;0.20;78.90
15257;DHT22;7731;50.720;6.912;2023-02-08T00:04:45;0.20;92.20
15257;DHT22;7731;50.720;6.912;2023-02-08T00:07:15;0.10;97.40
15257;DHT22;7731;50.720;6.912;2023-02-08T00:09:45;0.00;99.90
15257;DHT22;7731;50.720;6.912;2023-02-08T00:12:15;0.00;99.90
15257;DHT22;7731;50.720;6.912;2023-02-08T00:14:46;-0.10;99.90
15257;DHT22;7731;50.720;6.912;2023-02-08T00:17:24;-0.20;99.90
15257;DHT22;7731;50.720;6.912;2023-02-08T00:19:54;-0.30;99.90
15257;DHT22;7731;50.720;6.912;2023-02-08T00:22:24;-0.30;99.90
15257;DHT22;7731;50.720;6.912;2023-02-08T00:24:54;-0.40;99.90
15257;DHT22;7731;50.720;6.912;2023-02-08T00:27:25;-0.40;99.90
15257;DHT22;7731;50.720;6.912;2023-02-08T00:29:55;-0.50;99.90
15257;DHT22;7731;50.720;6.912;2023-02-08T00:32:28;-0.50;99.90
15257;DHT22;7731;50.720;6.912;2023-02-08T00:34:58;-0.60;99.90
15257;DHT22;7731;50.720;6.912;2023-02-08T00:37:30;-0.60;99.90
15257;DHT22;7731;50.720;6.912;2023-02-08T00:40:01;-0.80;99.90
15257;DHT22;7731;50.720;6.912;2023-02-08T00:42:32;-0.90;99.90
15257;DHT22;7731;50.720;6.912;2023-02-08T00:45:03;-1.00;99.90
15257;DHT22;7731;50.720;6.912;2023-02-08T00:47:36;-1.00;99.90
15257;DHT22;7731;50.720;6.912;2023-02-08T00:50:07;-1.00;99.90
15257;DHT22;7731;50.720;6.912;2023-02-08T00:52:39;-1.00;99.90
15257;DHT22;7731;50.720;6.912;2023-02-08T00:55:09;-1.00;99.90
15257;DHT22;7731;50.720;6.912;2023-02-08T00:57:41;-0.90;99.90
15257;DHT22;7731;50.720;6.912;2023-02-08T01:00:14;-0.90;99.90
15257;DHT22;7731;50.720;6.912;2023-02-08T01:02:47;-0.90;99.90
15257;DHT22;7731;50.720;6.912;2023-02-08T01:05:17;-0.90;99.90
15257;DHT22;7731;50.720;6.912;2023-02-08T01:07:47;-0.90;99.90
15257;DHT22;7731;50.720;6.912;2023-02-08T01:10:18;-0.90;99.90
15257;DHT22;7731;50.720;6.912;2023-02-08T01:12:48;-0.80;18.60
15257;DHT22;7731;50.720;6.912;2023-02-08T01:15:18;-0.80;3.80
15257;DHT22;7731;50.720;6.912;2023-02-08T01:17:55;-0.80;18.10
15257;DHT22;7731;50.720;6.912;2023-02-08T01:20:26;-0.90;67.30
15257;DHT22;7731;50.720;6.912;2023-02-08T01:22:56;-0.90;85.10
15257;DHT22;7731;50.720;6.912;2023-02-08T01:25:26;-0.80;58.10
15257;DHT22;7731;50.720;6.912;2023-02-08T01:27:56;-0.70;1.00
15257;DHT22;7731;50.720;6.912;2023-02-08T01:30:26;-0.70;1.00
15257;DHT22;7731;50.720;6.912;2023-02-08T01:32:59;-0.70;1.00
15257;DHT22;7731;50.720;6.912;2023-02-08T01:35:32;-0.80;1.00
15257;DHT22;7731;50.720;6.912;2023-02-08T01:38:02;-0.70;1.00
15257;DHT22;7731;50.720;6.912;2023-02-08T01:40:32;-0.70;1.00
15257;DHT22;7731;50.720;6.912;2023-02-08T01:43:02;-0.60;1.00
15257;DHT22;7731;50.720;6.912;2023-02-08T01:45:35;-0.50;1.00
15257;DHT22;7731;50.720;6.912;2023-02-08T01:48:11;-0.30;99.90
15257;DHT22;7731;50.720;6.912;2023-02-08T01:50:49;-0.20;99.90
15257;DHT22;7731;50.720;6.912;2023-02-08T01:53:24;-0.10;73.40
15257;DHT22;7731;50.720;6.912;2023-02-08T01:56:01;-0.10;1.00
15257;DHT22;7731;50.720;6.912;2023-02-08T01:58:38;0.00;1.00
15257;DHT22;7731;50.720;6.912;2023-02-08T02:01:13;0.00;99.90
15257;DHT22;7731;50.720;6.912;2023-02-08T02:03:47;0.00;99.90
15257;DHT22;7731;50.720;6.912;2023-02-08T02:06:21;0.00;1.00
15257;DHT22;7731;50.720;6.912;2023-02-08T02:09:05;0.00;99.90
15257;DHT22;7731;50.720;6.912;2023-02-08T02:11:42;0.00;99.90
15257;DHT22;7731;50.720;6.912;2023-02-08T02:14:13;0.00;90.80
15257;DHT22;7731;50.720;6.912;2023-02-08T02:16:44;0.00;99.90
15257;DHT22;7731;50.720;6.912;2023-02-08T02:19:22;0.00;99.90
15257;DHT22;7731;50.720;6.912;2023-02-08T02:22:09;0.00;99.90
15257;DHT22;7731;50.720;6.912;2023-02-08T02:25:13;0.10;16.90
15257;DHT22;7731;50.720;6.912;2023-02-08T02:31:46;0.10;1.00
15257;DHT22;7731;50.720;6.912;2023-02-08T02:34:25;0.10;99.90
15257;DHT22;7731;50.720;6.912;2023-02-08T02:37:10;0.00;99.90
15257;DHT22;7731;50.720;6.912;2023-02-08T02:39:55;0.00;99.90
15257;DHT22;7731;50.720;6.912;2023-02-08T02:42:41;-0.10;1.00
15257;DHT22;7731;50.720;6.912;2023-02-08T02:45:47;-0.10;1.00
15257;DHT22;7731;50.720;6.912;2023-02-08T02:48:27;-0.10;1.00
15257;DHT22;7731;50.720;6.912;2023-02-08T02:51:07;-0.10;1.00
15257;DHT22;7731;50.720;6.912;2023-02-08T02:53:47;-0.10;1.00
15257;DHT22;7731;50.720;6.912;2023-02-08T02:56:27;-0.10;1.00
15257;DHT22;7731;50.720;6.912;2023-02-08T02:59:03;-0.10;1.00
15257;DHT22;7731;50.720;6.912;2023-02-08T03:01:36;0.00;1.00
15257;DHT22;7731;50.720;6.912;2023-02-08T03:04:15;0.00;99.90
15257;DHT22;7731;50.720;6.912;2023-02-08T03:06:57;0.10;89.40
15257;DHT22;7731;50.720;6.912;2023-02-08T03:09:47;0.10;1.00
15257;DHT22;7731;50.720;6.912;2023-02-08T03:12:34;0.20;1.00
15257;DHT22;7731;50.720;6.912;2023-02-08T03:15:22;0.20;99.90
15257;DHT22;7731;50.720;6.912;2023-02-08T03:18:08;0.20;99.90
15257;DHT22;7731;50.720;6.912;2023-02-08T03:20:58;0.10;1.00
15257;DHT22;7731;50.720;6.912;2023-02-08T03:23:39;0.10;28.90
15257;DHT22;7731;50.720;6.912;2023-02-08T03:26:18;0.00;99.90
15257;DHT22;7731;50.720;6.912;2023-02-08T03:28:55;0.00;1.00
15257;DHT22;7731;50.720;6.912;2023-02-08T03:31:39;-0.10;1.00
15257;DHT22;7731;50.720;6.912;2023-02-08T03:34:17;-0.20;99.90
15257;DHT22;7731;50.720;6.912;2023-02-08T03:36:57;-0.30;99.90
15257;DHT22;7731;50.720;6.912;2023-02-08T03:39:34;-0.40;99.90
15257;DHT22;7731;50.720;6.912;2023-02-08T03:42:11;-0.50;1.00
15257;DHT22;7731;50.720;6.912;2023-02-08T03:44:48;-0.60;1.00
15257;DHT22;7731;50.720;6.912;2023-02-08T03:47:30;-0.50;1.00
15257;DHT22;7731;50.720;6.912;2023-02-08T03:50:11;-0.60;1.00
15257;DHT22;7731;50.720;6.912;2023-02-08T03:52:46;-0.70;1.00
15257;DHT22;7731;50.720;6.912;2023-02-08T03:55:23;-0.80;1.00
15257;DHT22;7731;50.720;6.912;2023-02-08T03:58:00;-0.90;1.00
15257;DHT22;7731;50.720;6.912;2023-02-08T04:00:39;-0.90;1.00
15257;DHT22;7731;50.720;6.912;2023-02-08T04:03:17;-1.00;1.00
15257;DHT22;7731;50.720;6.912;2023-02-08T04:05:51;-1.00;1.00
15257;DHT22;7731;50.720;6.912;2023-02-08T04:08:26;-1.10;1.00
15257;DHT22;7731;50.720;6.912;2023-02-08T04:10:57;-1.10;6.30
15257;DHT22;7731;50.720;6.912;2023-02-08T04:13:27;-1.20;54.10
15257;DHT22;7731;50.720;6.912;2023-02-08T04:15:57;-1.30;99.90
15257;DHT22;7731;50.720;6.912;2023-02-08T04:18:27;-1.30;99.90
15257;DHT22;7731;50.720;6.912;2023-02-08T04:21:00;-1.30;99.90
15257;DHT22;7731;50.720;6.912;2023-02-08T04:23:32;-1.40;99.90
15257;DHT22;7731;50.720;6.912;2023-02-08T04:26:03;-1.50;99.90
15257;DHT22;7731;50.720;6.912;2023-02-08T04:28:34;-1.60;99.90
15257;DHT22;7731;50.720;6.912;2023-02-08T04:31:05;-1.60;99.90
15257;DHT22;7731;50.720;6.912;2023-02-08T04:33:35;-1.60;99.90
15257;DHT22;7731;50.720;6.912;2023-02-08T04:36:06;-1.60;99.90
15257;DHT22;7731;50.720;6.912;2023-02-08T04:38:39;-1.60;99.90
15257;DHT22;7731;50.720;6.912;2023-02-08T04:41:09;-1.60;99.90
15257;DHT22;7731;50.720;6.912;2023-02-08T04:43:40;-1.70;99.90
15257;DHT22;7731;50.720;6.912;2023-02-08T04:46:10;-1.80;99.90
15257;DHT22;7731;50.720;6.912;2023-02-08T04:48:41;-1.80;99.90
15257;DHT22;7731;50.720;6.912;2023-02-08T04:51:12;-1.80;99.90
15257;DHT22;7731;50.720;6.912;2023-02-08T04:53:45;-1.80;99.90
15257;DHT22;7731;50.720;6.912;2023-02-08T04:56:15;-1.80;99.90
15257;DHT22;7731;50.720;6.912;2023-02-08T04:58:45;-1.90;99.90
15257;DHT22;7731;50.720;6.912;2023-02-08T05:01:15;-1.90;99.90
15257;DHT22;7731;50.720;6.912;2023-02-08T05:03:46;-1.80;99.90
15257;DHT22;7731;50.720;6.912;2023-02-08T05:06:23;-1.70;99.90
15257;DHT22;7731;50.720;6.912;2023-02-08T05:08:56;-1.70;99.90
15257;DHT22;7731;50.720;6.912;2023-02-08T05:11:27;-1.70;99.90
15257;DHT22;7731;50.720;6.912;2023-02-08T05:13:58;-1.60;99.90
15257;DHT22;7731;50.720;6.912;2023-02-08T05:16:28;-1.80;99.90
15257;DHT22;7731;50.720;6.912;2023-02-08T05:18:58;-1.90;99.90
15257;DHT22;7731;50.720;6.912;2023-02-08T05:21:28;-1.90;99.90
15257;DHT22;7731;50.720;6.912;2023-02-08T05:24:03;-2.00;99.90
15257;DHT22;7731;50.720;6.912;2023-02-08T05:26:38;-2.00;99.90
15257;DHT22;7731;50.720;6.912;2023-02-08T05:29:08;-2.00;99.90
15257;DHT22;7731;50.720;6.912;2023-02-08T05:31:39;-2.10;99.90
15257;DHT22;7731;50.720;6.912;2023-02-08T05:34:09;-2.10;99.90
15257;DHT22;7731;50.720;6.912;2023-02-08T05:36:39;-2.10;99.90
15257;DHT22;7731;50.720;6.912;2023-02-08T05:39:12;-2.00;99.90
15257;DHT22;7731;50.720;6.912;2023-02-08T05:41:42;-2.00;99.90
15257;DHT22;7731;50.720;6.912;2023-02-08T05:44:12;-2.00;99.90
15257;DHT22;7731;50.720;6.912;2023-02-08T05:46:42;-2.00;99.90
15257;DHT22;7731;50.720;6.912;2023-02-08T05:49:13;-2.10;99.90
15257;DHT22;7731;50.720;6.912;2023-02-08T05:51:43;-2.00;99.90
15257;DHT22;7731;50.720;6.912;2023-02-08T05:54:18;-2.00;99.90
15257;DHT22;7731;50.720;6.912;2023-02-08T05:56:48;-2.00;99.90
15257;DHT22;7731;50.720;6.912;2023-02-08T05:59:19;-2.10;99.90
15257;DHT22;7731;50.720;6.912;2023-02-08T06:01:49;-2.00;99.90
15257;DHT22;7731;50.720;6.912;2023-02-08T06:04:19;-1.90;99.90
15257;DHT22;7731;50.720;6.912;2023-02-08T06:06:49;-1.90;91.60
15257;DHT22;7731;50.720;6.912;2023-02-08T06:09:22;-1.90;17.00
15257;DHT22;7731;50.720;6.912;2023-02-08T06:11:52;-1.90;1.00
15257;DHT22;7731;50.720;6.912;2023-02-08T06:14:23;-1.90;1.00
15257;DHT22;7731;50.720;6.912;2023-02-08T06:16:53;-1.90;1.00
15257;DHT22;7731;50.720;6.912;2023-02-08T06:19:24;-1.90;1.00
15257;DHT22;7731;50.720;6.912;2023-02-08T06:21:54;-1.90;1.00
15257;DHT22;7731;50.720;6.912;2023-02-08T06:24:27;-1.90;1.00
15257;DHT22;7731;50.720;6.912;2023-02-08T06:26:57;-1.80;1.00
15257;DHT22;7731;50.720;6.912;2023-02-08T06:29:27;-1.80;1.00
15257;DHT22;7731;50.720;6.912;2023-02-08T06:31:57;-1.80;1.00
15257;DHT22;7731;50.720;6.912;2023-02-08T06:34:28;-1.70;1.00
15257;DHT22;7731;50.720;6.912;2023-02-08T06:36:58;-1.70;1.00
15257;DHT22;7731;50.720;6.912;2023-02-08T06:39:31;-1.70;1.00
15257;DHT22;7731;50.720;6.912;2023-02-08T06:42:02;-1.60;1.00
15257;DHT22;7731;50.720;6.912;2023-02-08T06:44:32;-1.70;1.00
15257;DHT22;7731;50.720;6.912;2023-02-08T06:47:02;-1.70;1.00
15257;DHT22;7731;50.720;6.912;2023-02-08T06:49:33;-1.70;1.00
15257;DHT22;7731;50.720;6.912;2023-02-08T06:52:03;-1.80;1.00
15257;DHT22;7731;50.720;6.912;2023-02-08T06:54:36;-1.80;1.00
15257;DHT22;7731;50.720;6.912;2023-02-08T06:57:07;-1.80;1.00
15257;DHT22;7731;50.720;6.912;2023-02-08T06:59:38;-1.90;1.00
15257;DHT22;7731;50.720;6.912;2023-02-08T07:02:11;-1.80;1.00
15257;DHT22;7731;50.720;6.912;2023-02-08T07:04:43;-1.70;1.00
15257;DHT22;7731;50.720;6.912;2023-02-08T07:07:17;-1.60;1.00
15257;DHT22;7731;50.720;6.912;2023-02-08T07:09:50;-1.60;1.00
15257;DHT22;7731;50.720;6.912;2023-02-08T07:12:20;-1.60;1.00
15257;DHT22;7731;50.720;6.912;2023-02-08T07:14:53;-1.60;1.00
15257;DHT22;7731;50.720;6.912;2023-02-08T07:17:24;-1.50;1.00
15257;DHT22;7731;50.720;6.912;2023-02-08T07:19:54;-1.50;1.00
15257;DHT22;7731;50.720;6.912;2023-02-08T07:22:24;-1.40;99.90
15257;DHT22;7731;50.720;6.912;2023-02-08T07:24:57;-1.30;99.90
15257;DHT22;7731;50.720;6.912;2023-02-08T07:27:27;-1.20;1.00
15257;DHT22;7731;50.720;6.912;2023-02-08T07:29:57;-1.10;1.00
15257;DHT22;7731;50.720;6.912;2023-02-08T07:32:28;-1.10;1.00
15257;DHT22;7731;50.720;6.912;2023-02-08T07:35:00;-1.20;1.00
15257;DHT22;7731;50.720;6.912;2023-02-08T07:37:33;-1.10;50.70
15257;DHT22;7731;50.720;6.912;2023-02-08T07:40:06;-1.00;1.00
15257;DHT22;7731;50.720;6.912;2023-02-08T07:42:37;-1.00;1.00
15257;DHT22;7731;50.720;6.912;2023-02-08T07:45:08;-0.90;1.00
15257;DHT22;7731;50.720;6.912;2023-02-08T07:47:38;-0.80;99.90
15257;DHT22;7731;50.720;6.912;2023-02-08T07:50:08;-0.70;1.00
15257;DHT22;7731;50.720;6.912;2023-02-08T07:52:38;-0.60;99.90
15257;DHT22;7731;50.720;6.912;2023-02-08T07:55:14;-0.60;1.00
15257;DHT22;7731;50.720;6.912;2023-02-08T07:57:48;-0.40;1.00
15257;DHT22;7731;50.720;6.912;2023-02-08T08:00:19;-0.40;99.90
15257;DHT22;7731;50.720;6.912;2023-02-08T08:02:49;-0.30;99.90
15257;DHT22;7731;50.720;6.912;2023-02-08T08:05:19;-0.10;1.00
15257;DHT22;7731;50.720;6.912;2023-02-08T08:07:50;0.00;1.00
15257;DHT22;7731;50.720;6.912;2023-02-08T08:10:23;0.10;99.90
15257;DHT22;7731;50.720;6.912;2023-02-08T08:12:53;0.40;99.90
15257;DHT22;7731;50.720;6.912;2023-02-08T08:15:23;1.80;1.00
15257;DHT22;7731;50.720;6.912;2023-02-08T08:17:54;3.80;99.90
15257;DHT22;7731;50.720;6.912;2023-02-08T08:20:25;5.80;99.90
15257;DHT22;7731;50.720;6.912;2023-02-08T08:22:57;7.80;33.20
15257;DHT22;7731;50.720;6.912;2023-02-08T08:25:30;9.10;1.00
15257;DHT22;7731;50.720;6.912;2023-02-08T08:28:01;10.10;1.00
15257;DHT22;7731;50.720;6.912;2023-02-08T08:30:31;11.90;1.00
15257;DHT22;7731;50.720;6.912;2023-02-08T08:33:01;12.00;1.00
15257;DHT22;7731;50.720;6.912;2023-02-08T08:35:32;12.10;1.00
15257;DHT22;7731;50.720;6.912;2023-02-08T08:38:03;12.10;1.00
15257;DHT22;7731;50.720;6.912;2023-02-08T08:40:37;11.70;1.00
15257;DHT22;7731;50.720;6.912;2023-02-08T08:43:07;13.00;1.00
15257;DHT22;7731;50.720;6.912;2023-02-08T08:45:38;12.70;1.00
15257;DHT22;7731;50.720;6.912;2023-02-08T08:48:10;12.60;1.00
15257;DHT22;7731;50.720;6.912;2023-02-08T08:50:40;12.40;1.00
15257;DHT22;7731;50.720;6.912;2023-02-08T08:53:11;12.70;1.00
15257;DHT22;7731;50.720;6.912;2023-02-08T08:55:45;13.10;1.00
15257;DHT22;7731;50.720;6.912;2023-02-08T08:58:15;13.10;1.00
15257;DHT22;7731;50.720;6.912;2023-02-08T09:00:45;13.50;1.00
15257;DHT22;7731;50.720;6.912;2023-02-08T09:03:15;14.00;1.00
15257;DHT22;7731;50.720;6.912;2023-02-08T09:05:47;13.70;1.00
15257;DHT22;7731;50.720;6.912;2023-02-08T09:08:17;13.70;1.00
15257;DHT22;7731;50.720;6.912;2023-02-08T09:10:50;13.60;1.00
15257;DHT22;7731;50.720;6.912;2023-02-08T09:13:23;13.20;1.00
15257;DHT22;7731;50.720;6.912;2023-02-08T09:15:53;13.20;1.00
15257;DHT22;7731;50.720;6.912;2023-02-08T09:18:23;13.60;1.00
15257;DHT22;7731;50.720;6.912;2023-02-08T09:20:53;13.50;1.00
15257;DHT22;7731;50.720;6.912;2023-02-08T09:23:23;13.80;1.00
15257;DHT22;7731;50.720;6.912;2023-02-08T09:25:56;13.80;1.00
15257;DHT22;7731;50.720;6.912;2023-02-08T09:28:26;13.60;1.00
15257;DHT22;7731;50.720;6.912;2023-02-08T09:30:56;14.20;1.00
15257;DHT22;7731;50.720;6.912;2023-02-08T09:33:27;14.30;1.00
15257;DHT22;7731;50.720;6.912;2023-02-08T09:35:57;14.90;1.00
15257;DHT22;7731;50.720;6.912;2023-02-08T09:38:28;14.70;1.00
15257;DHT22;7731;50.720;6.912;2023-02-08T09:41:15;14.00;1.00
15257;DHT22;7731;50.720;6.912;2023-02-08T09:44:09;14.00;1.00
15257;DHT22;7731;50.720;6.912;2023-02-08T09:46:56;12.80;1.00
15257;DHT22;7731;50.720;6.912;2023-02-08T09:49:33;13.10;1.00
15257;DHT22;7731;50.720;6.912;2023-02-08T09:52:12;12.70;1.00
15257;DHT22;7731;50.720;6.912;2023-02-08T09:54:49;12.70;1.00
15257;DHT22;7731;50.720;6.912;2023-02-08T09:57:29;12.00;1.00
15257;DHT22;7731;50.720;6.912;2023-02-08T10:00:08;12.00;1.00
15257;DHT22;7731;50.720;6.912;2023-02-08T10:02:48;11.80;1.00
15257;DHT22;7731;50.720;6.912;2023-02-08T10:05:29;12.20;1.00
15257;DHT22;7731;50.720;6.912;2023-02-08T10:08:07;12.30;1.00
15257;DHT22;7731;50.720;6.912;2023-02-08T10:10:46;12.80;1.00
15257;DHT22;7731;50.720;6.912;2023-02-08T10:13:35;11.90;1.00
15257;DHT22;7731;50.720;6.912;2023-02-08T10:16:26;11.40;1.00
15257;DHT22;7731;50.720;6.912;2023-02-08T10:19:13;11.00;1.00
15257;DHT22;7731;50.720;6.912;2023-02-08T10:22:07;10.70;1.00
15257;DHT22;7731;50.720;6.912;2023-02-08T10:25:09;10.50;1.00
15257;DHT22;7731;50.720;6.912;2023-02-08T10:28:21;10.80;1.00
15257;DHT22;7731;50.720;6.912;2023-02-08T10:31:11;10.80;1.00
15257;DHT22;7731;50.720;6.912;2023-02-08T10:33:57;10.20;1.00
15257;DHT22;7731;50.720;6.912;2023-02-08T10:36:36;10.20;1.00
15257;DHT22;7731;50.720;6.912;2023-02-08T10:39:14;11.20;1.00
15257;DHT22;7731;50.720;6.912;2023-02-08T10:41:46;10.50;1.00
15257;DHT22;7731;50.720;6.912;2023-02-08T10:44:23;10.20;1.00
15257;DHT22;7731;50.720;6.912;2023-02-08T10:47:08;10.30;1.00
15257;DHT22;7731;50.720;6.912;2023-02-08T10:49:49;10.70;1.00
15257;DHT22;7731;50.720;6.912;2023-02-08T10:52:26;11.00;1.00
15257;DHT22;7731;50.720;6.912;2023-02-08T10:54:57;10.20;1.00
15257;DHT22;7731;50.720;6.912;2023-02-08T10:57:31;10.10;1.00
15257;DHT22;7731;50.720;6.912;2023-02-08T11:00:10;10.30;1.00
15257;DHT22;7731;50.720;6.912;2023-02-08T11:02:48;10.70;1.00
15257;DHT22;7731;50.720;6.912;2023-02-08T11:05:30;10.70;1.00
15257;DHT22;7731;50.720;6.912;2023-02-08T11:08:07;10.70;1.00
15257;DHT22;7731;50.720;6.912;2023-02-08T11:10:44;10.70;1.00
15257;DHT22;7731;50.720;6.912;2023-02-08T11:13:25;10.20;1.00
15257;DHT22;7731;50.720;6.912;2023-02-08T11:16:08;10.30;1.00
15257;DHT22;7731;50.720;6.912;2023-02-08T11:18:47;10.10;1.00
15257;DHT22;7731;50.720;6.912;2023-02-08T11:21:25;10.30;1.00
15257;DHT22;7731;50.720;6.912;2023-02-08T11:24:06;10.80;1.00
15257;DHT22;7731;50.720;6.912;2023-02-08T11:26:53;11.30;1.00
15257;DHT22;7731;50.720;6.912;2023-02-08T11:29:26;12.20;1.00
15257;DHT22;7731;50.720;6.912;2023-02-08T11:32:02;12.20;1.00
15257;DHT22;7731;50.720;6.912;2023-02-08T11:34:44;11.40;1.00
15257;DHT22;7731;50.720;6.912;2023-02-08T11:37:17;11.10;1.00
15257;DHT22;7731;50.720;6.912;2023-02-08T11:39:53;10.70;1.00
15257;DHT22;7731;50.720;6.912;2023-02-08T11:42:27;10.80;1.00
15257;DHT22;7731;50.720;6.912;2023-02-08T11:45:02;10.50;1.00
15257;DHT22;7731;50.720;6.912;2023-02-08T11:47:36;9.80;1.00
15257;DHT22;7731;50.720;6.912;2023-02-08T11:50:17;9.70;1.00
15257;DHT22;7731;50.720;6.912;2023-02-08T11:52:56;9.80;1.00
15257;DHT22;7731;50.720;6.912;2023-02-08T11:55:33;9.10;1.00
15257;DHT22;7731;50.720;6.912;2023-02-08T11:58:15;8.60;1.00
15257;DHT22;7731;50.720;6.912;2023-02-08T12:00:58;8.50;1.00
15257;DHT22;7731;50.720;6.912;2023-02-08T12:03:36;8.60;1.00
15257;DHT22;7731;50.720;6.912;2023-02-08T12:06:19;8.70;1.00
15257;DHT22;7731;50.720;6.912;2023-02-08T12:09:08;9.50;1.00
15257;DHT22;7731;50.720;6.912;2023-02-08T12:11:56;9.40;1.00
15257;DHT22;7731;50.720;6.912;2023-02-08T12:14:51;9.40;1.00
15257;DHT22;7731;50.720;6.912;2023-02-08T12:17:56;9.10;1.00
15257;DHT22;7731;50.720;6.912;2023-02-08T12:20:43;8.30;1.00
15257;DHT22;7731;50.720;6.912;2023-02-08T12:23:51;8.20;1.00
15257;DHT22;7731;50.720;6.912;2023-02-08T12:26:38;8.40;1.00
15257;DHT22;7731;50.720;6.912;2023-02-08T12:29:30;8.40;1.00
15257;DHT22;7731;50.720;6.912;2023-02-08T12:32:38;8.30;1.00
15257;DHT22;7731;50.720;6.912;2023-02-08T12:35:49;8.40;1.00
15257;DHT22;7731;50.720;6.912;2023-02-08T12:39:01;8.60;1.00
15257;DHT22;7731;50.720;6.912;2023-02-08T12:42:23;8.60;1.00
15257;DHT22;7731;50.720;6.912;2023-02-08T12:51:25;8.20;1.00
15257;DHT22;7731;50.720;6.912;2023-02-08T12:54:07;8.10;1.00
15257;DHT22;7731;50.720;6.912;2023-02-08T12:56:44;8.10;1.00
15257;DHT22;7731;50.720;6.912;2023-02-08T12:59:34;8.50;1.00
15257;DHT22;7731;50.720;6.912;2023-02-08T13:02:14;8.60;1.00
15257;DHT22;7731;50.720;6.912;2023-02-08T13:04:51;8.60;1.00
15257;DHT22;7731;50.720;6.912;2023-02-08T13:07:30;9.00;1.00
15257;DHT22;7731;50.720;6.912;2023-02-08T13:10:11;9.00;1.00
15257;DHT22;7731;50.720;6.912;2023-02-08T13:12:57;8.50;1.00
15257;DHT22;7731;50.720;6.912;2023-02-08T13:15:38;8.40;1.00
15257;DHT22;7731;50.720;6.912;2023-02-08T13:18:14;8.10;1.00
15257;DHT22;7731;50.720;6.912;2023-02-08T13:20:51;7.90;1.00
15257;DHT22;7731;50.720;6.912;2023-02-08T13:23:29;7.90;1.00
15257;DHT22;7731;50.720;6.912;2023-02-08T13:26:20;7.80;1.00
15257;DHT22;7731;50.720;6.912;2023-02-08T13:28:57;7.70;1.00
15257;DHT22;7731;50.720;6.912;2023-02-08T13:31:31;7.80;1.00
15257;DHT22;7731;50.720;6.912;2023-02-08T13:34:13;8.00;1.00
15257;DHT22;7731;50.720;6.912;2023-02-08T13:36:51;8.10;1.00
15257;DHT22;7731;50.720;6.912;2023-02-08T13:39:40;8.00;1.00
15257;DHT22;7731;50.720;6.912;2023-02-08T13:42:20;7.80;1.00
15257;DHT22;7731;50.720;6.912;2023-02-08T13:45:00;7.80;1.00
15257;DHT22;7731;50.720;6.912;2023-02-08T13:47:38;7.80;1.00
15257;DHT22;7731;50.720;6.912;2023-02-08T13:50:39;8.00;1.00
15257;DHT22;7731;50.720;6.912;2023-02-08T13:54:08;8.00;1.00
15257;DHT22;7731;50.720;6.912;2023-02-08T13:56:44;8.00;1.00
15257;DHT22;7731;50.720;6.912;2023-02-08T13:59:30;8.10;1.00
15257;DHT22;7731;50.720;6.912;2023-02-08T14:02:24;8.00;1.00
15257;DHT22;7731;50.720;6.912;2023-02-08T14:08:18;7.60;1.00
15257;DHT22;7731;50.720;6.912;2023-02-08T14:11:02;7.40;1.00
15257;DHT22;7731;50.720;6.912;2023-02-08T14:13:49;7.40;1.00
15257;DHT22;7731;50.720;6.912;2023-02-08T14:16:30;7.40;1.00
15257;DHT22;7731;50.720;6.912;2023-02-08T14:19:04;7.30;1.00
15257;DHT22;7731;50.720;6.912;2023-02-08T14:22:01;7.40;1.00
15257;DHT22;7731;50.720;6.912;2023-02-08T14:24:37;7.40;1.00
15257;DHT22;7731;50.720;6.912;2023-02-08T14:27:19;7.30;1.00
15257;DHT22;7731;50.720;6.912;2023-02-08T14:30:04;7.40;1.00
15257;DHT22;7731;50.720;6.912;2023-02-08T14:32:49;7.30;1.00
15257;DHT22;7731;50.720;6.912;2023-02-08T14:35:24;7.20;1.00
15257;DHT22;7731;50.720;6.912;2023-02-08T14:41:50;7.10;1.00
15257;DHT22;7731;50.720;6.912;2023-02-08T14:45:03;7.10;1.00
15257;DHT22;7731;50.720;6.912;2023-02-08T14:47:56;7.00;1.00
15257;DHT22;7731;50.720;6.912;2023-02-08T14:50:50;7.00;1.00
15257;DHT22;7731;50.720;6.912;2023-02-08T14:56:19;6.90;1.00
15257;DHT22;7731;50.720;6.912;2023-02-08T14:58:55;6.90;1.00
15257;DHT22;7731;50.720;6.912;2023-02-08T15:01:40;6.90;1.00
15257;DHT22;7731;50.720;6.912;2023-02-08T15:04:13;6.80;1.00
15257;DHT22;7731;50.720;6.912;2023-02-08T15:10:01;6.70;1.00
15257;DHT22;7731;50.720;6.912;2023-02-08T15:12:36;6.60;1.00
15257;DHT22;7731;50.720;6.912;2023-02-08T15:15:21;6.50;1.00
15257;DHT22;7731;50.720;6.912;2023-02-08T15:17:57;6.40;1.00
15257;DHT22;7731;50.720;6.912;2023-02-08T15:20:30;6.30;1.00
15257;DHT22;7731;50.720;6.912;2023-02-08T15:23:03;6.30;1.00
15257;DHT22;7731;50.720;6.912;2023-02-08T15:25:37;6.30;1.00
15257;DHT22;7731;50.720;6.912;2023-02-08T15:28:17;6.40;1.00
15257;DHT22;7731;50.720;6.912;2023-02-08T15:30:53;6.40;1.00
15257;DHT22;7731;50.720;6.912;2023-02-08T15:33:32;6.30;1.00
15257;DHT22;7731;50.720;6.912;2023-02-08T15:36:06;6.20;1.00
15257;DHT22;7731;50.720;6.912;2023-02-08T15:38:44;6.10;1.00
15257;DHT22;7731;50.720;6.912;2023-02-08T15:41:24;6.00;1.00
15257;DHT22;7731;50.720;6.912;2023-02-08T15:46:44;6.00;1.00
15257;DHT22;7731;50.720;6.912;2023-02-08T15:49:23;6.00;1.00
15257;DHT22;7731;50.720;6.912;2023-02-08T15:51:59;5.90;1.00
15257;DHT22;7731;50.720;6.912;2023-02-08T15:54:31;5.80;1.00
15257;DHT22;7731;50.720;6.912;2023-02-08T15:57:05;5.70;1.00
15257;DHT22;7731;50.720;6.912;2023-02-08T15:59:47;5.60;1.00
15257;DHT22;7731;50.720;6.912;2023-02-08T16:02:23;5.50;1.00
15257;DHT22;7731;50.720;6.912;2023-02-08T16:05:02;5.50;1.00
15257;DHT22;7731;50.720;6.912;2023-02-08T16:07:47;5.50;2.00
15257;DHT22;7731;50.720;6.912;2023-02-08T16:10:27;5.40;10.10
15257;DHT22;7731;50.720;6.912;2023-02-08T16:13:13;5.40;15.10
15257;DHT22;7731;50.720;6.912;2023-02-08T16:15:51;5.30;22.90
15257;DHT22;7731;50.720;6.912;2023-02-08T16:18:38;5.20;37.70
15257;DHT22;7731;50.720;6.912;2023-02-08T16:21:27;5.10;41.70
15257;DHT22;7731;50.720;6.912;2023-02-08T16:24:05;5.00;42.60
15257;DHT22;7731;50.720;6.912;2023-02-08T16:27:03;5.00;48.20
15257;DHT22;7731;50.720;6.912;2023-02-08T16:29:37;5.00;44.20
15257;DHT22;7731;50.720;6.912;2023-02-08T16:32:20;4.90;65.50
15257;DHT22;7731;50.720;6.912;2023-02-08T16:34:56;4.80;55.70
15257;DHT22;7731;50.720;6.912;2023-02-08T16:37:33;4.80;54.50
15257;DHT22;7731;50.720;6.912;2023-02-08T16:40:08;4.80;56.80
15257;DHT22;7731;50.720;6.912;2023-02-08T16:43:17;4.70;61.40
15257;DHT22;7731;50.720;6.912;2023-02-08T16:48:56;4.50;92.50
15257;DHT22;7731;50.720;6.912;2023-02-08T16:51:28;4.40;99.90
15257;DHT22;7731;50.720;6.912;2023-02-08T16:54:05;4.40;99.90
15257;DHT22;7731;50.720;6.912;2023-02-08T16:56:38;4.30;99.90
15257;DHT22;7731;50.720;6.912;2023-02-08T16:59:12;4.30;99.90
15257;DHT22;7731;50.720;6.912;2023-02-08T17:01:42;4.20;99.90
15257;DHT22;7731;50.720;6.912;2023-02-08T17:04:14;4.20;99.90
15257;DHT22;7731;50.720;6.912;2023-02-08T17:06:45;4.10;99.90
15257;DHT22;7731;50.720;6.912;2023-02-08T17:09:19;4.00;99.90
15257;DHT22;7731;50.720;6.912;2023-02-08T17:11:50;4.00;99.90
15257;DHT22;7731;50.720;6.912;2023-02-08T17:14:20;3.90;99.90
15257;DHT22;7731;50.720;6.912;2023-02-08T17:16:50;3.70;99.90
15257;DHT22;7731;50.720;6.912;2023-02-08T17:19:20;3.60;99.90
15257;DHT22;7731;50.720;6.912;2023-02-08T17:21:52;3.50;99.90
15257;DHT22;7731;50.720;6.912;2023-02-08T17:24:25;3.60;99.90
15257;DHT22;7731;50.720;6.912;2023-02-08T17:26:55;3.50;99.90
15257;DHT22;7731;50.720;6.912;2023-02-08T17:29:25;3.50;99.90
15257;DHT22;7731;50.720;6.912;2023-02-08T17:31:58;3.50;99.90
15257;DHT22;7731;50.720;6.912;2023-02-08T17:34:28;3.60;99.90